Jacksonville, FL (32226)

11:44 AM EDT on August 30, 2015 (GMT -0400)
Eagles Hammock - Grass Butler & Wash Butler | | Change Station
CLOSE
Current Station
Personal Weather Station
Location: Jacksonville, FL
Elevation: 29 ft
Nearby Weather Stations

Elev 29 ft 30.49 °N, 81.57 °W | Updated 9 seconds ago

Overcast
Overcast
78.1 °F
Feels Like 81 °F
N
0.0
Wind Variable Wind from SSE
Gusts 3.0 mph

Today
High -- | Low -- °F
--% Chance of Precip.
Yesterday
High -- | Low -- °F
Precip. -- in
7:01 AM 7:51 PM
Full, 99% visible
Pressure 30.05 in
Visibility 2.0 miles
Clouds Few 500 ft
Scattered Clouds 1400 ft
Overcast 2500 ft
Heat Index 81 °F
Dew Point 76 °F
Humidity 92%
Rainfall 0.07 in
Snow Depth Not available.
UV 3 out of 12
Pollen 2.90 out of 12
Air Quality Not available.
Flu Activity Not available.
SPECI KJAX 301538Z 12016G23KT 2SM RA BR FEW005 SCT014 OVC025 24/23 A3005 RMK AO2 RAB37 P0000 T02440228
Pressure 30.05 in
Visibility 2.0 miles
Clouds Few 500 ft
Scattered Clouds 1400 ft
Overcast 2500 ft
Heat Index 81 °F
Dew Point 76 °F
Humidity 92%
Rainfall 0.07 in
Snow Depth Not available.
UV 3 out of 12
Pollen 2.90 out of 12
Air Quality Not available.
Flu Activity Not available.
SPECI KJAX 301538Z 12016G23KT 2SM RA BR FEW005 SCT014 OVC025 24/23 A3005 RMK AO2 RAB37 P0000 T02440228

10-Day Weather Forecast

×

Almanac

Astronomy

Aug. 30, 2015 Rise Set
Actual Time
Civil Twilight
Nautical Twilight
Astronomical Twilight
Moon
Length of Visible Light
Length of Day
Tomorrow will be .
, % of the Moon is Illuminated

Today's Extremes

State Highs State Lows

Community

WunderPhotos

Upload Photos

1,850,997 photos uploaded!

WunderBlogs® & News

Nearby

Air Quality

  Air Quality AQ Index Pollutant
Not available.

Snow Depth

Station Depth Elevation

Earthquake Activity

City Distance Mag. Time & Date
Minimum magnitude displayed is 2.5.

Coastal Water Temperatures

Place Temperature

Stations

Nearby Weather Stations

Station Location Temp. Windchill Dew Point Humidity Wind Precip. Elev Updated Type